sensor_id;sensor_type;location;lat;lon;timestamp;P1;durP1;ratioP1;P2;durP2;ratioP2
19521;SDS011;9905;52.126;5.596;2024-03-23T00:56:17;25.25;;;17.25;;
19521;SDS011;9905;52.126;5.596;2024-03-23T00:58:43;24.88;;;17.80;;
19521;SDS011;9905;52.126;5.596;2024-03-23T01:01:09;21.25;;;18.17;;
19521;SDS011;9905;52.126;5.596;2024-03-23T01:03:36;26.95;;;18.52;;
19521;SDS011;9905;52.126;5.596;2024-03-23T01:06:02;23.02;;;16.42;;
19521;SDS011;9905;52.126;5.596;2024-03-23T01:08:29;19.95;;;17.10;;
19521;SDS011;9905;52.126;5.596;2024-03-23T01:10:55;19.92;;;16.85;;
19521;SDS011;9905;52.126;5.596;2024-03-23T01:13:23;21.20;;;16.25;;
19521;SDS011;9905;52.126;5.596;2024-03-23T01:15:49;23.05;;;17.30;;
19521;SDS011;9905;52.126;5.596;2024-03-23T01:18:16;19.70;;;17.67;;
19521;SDS011;9905;52.126;5.596;2024-03-23T01:20:42;22.70;;;17.10;;
19521;SDS011;9905;52.126;5.596;2024-03-23T01:23:09;21.35;;;16.63;;
19521;SDS011;9905;52.126;5.596;2024-03-23T01:25:35;27.27;;;17.13;;
19521;SDS011;9905;52.126;5.596;2024-03-23T01:28:02;24.17;;;17.42;;
19521;SDS011;9905;52.126;5.596;2024-03-23T01:30:30;17.05;;;15.23;;
19521;SDS011;9905;52.126;5.596;2024-03-23T01:32:57;25.20;;;17.40;;
19521;SDS011;9905;52.126;5.596;2024-03-23T01:35:23;21.52;;;18.20;;
19521;SDS011;9905;52.126;5.596;2024-03-23T01:37:49;19.80;;;17.30;;
19521;SDS011;9905;52.126;5.596;2024-03-23T01:40:16;24.92;;;17.60;;
19521;SDS011;9905;52.126;5.596;2024-03-23T01:42:43;24.88;;;18.27;;
19521;SDS011;9905;52.126;5.596;2024-03-23T01:45:20;19.33;;;17.38;;
19521;SDS011;9905;52.126;5.596;2024-03-23T01:47:49;21.15;;;18.90;;
19521;SDS011;9905;52.126;5.596;2024-03-23T01:50:15;21.75;;;17.88;;
19521;SDS011;9905;52.126;5.596;2024-03-23T01:52:43;23.30;;;17.13;;
19521;SDS011;9905;52.126;5.596;2024-03-23T01:55:09;26.60;;;16.90;;
19521;SDS011;9905;52.126;5.596;2024-03-23T01:57:36;29.55;;;17.65;;
19521;SDS011;9905;52.126;5.596;2024-03-23T02:00:02;22.52;;;18.48;;
19521;SDS011;9905;52.126;5.596;2024-03-23T02:02:29;26.58;;;17.67;;
19521;SDS011;9905;52.126;5.596;2024-03-23T02:04:56;24.60;;;18.02;;
19521;SDS011;9905;52.126;5.596;2024-03-23T02:07:23;25.38;;;17.25;;
19521;SDS011;9905;52.126;5.596;2024-03-23T02:09:49;22.83;;;16.88;;
19521;SDS011;9905;52.126;5.596;2024-03-23T02:12:17;18.83;;;17.00;;
19521;SDS011;9905;52.126;5.596;2024-03-23T02:14:43;23.83;;;15.65;;
19521;SDS011;9905;52.126;5.596;2024-03-23T02:17:10;23.90;;;17.08;;
19521;SDS011;9905;52.126;5.596;2024-03-23T02:19:35;22.20;;;16.15;;
19521;SDS011;9905;52.126;5.596;2024-03-23T02:22:04;18.90;;;16.70;;
19521;SDS011;9905;52.126;5.596;2024-03-23T02:24:31;20.38;;;16.05;;
19521;SDS011;9905;52.126;5.596;2024-03-23T02:26:59;19.85;;;15.77;;
19521;SDS011;9905;52.126;5.596;2024-03-23T02:29:24;18.27;;;15.15;;
19521;SDS011;9905;52.126;5.596;2024-03-23T02:31:51;18.38;;;16.67;;
19521;SDS011;9905;52.126;5.596;2024-03-23T02:34:17;18.02;;;16.13;;
19521;SDS011;9905;52.126;5.596;2024-03-23T02:36:44;18.88;;;16.95;;
19521;SDS011;9905;52.126;5.596;2024-03-23T02:39:09;21.48;;;16.63;;
19521;SDS011;9905;52.126;5.596;2024-03-23T02:41:37;20.25;;;16.63;;
19521;SDS011;9905;52.126;5.596;2024-03-23T02:44:03;18.48;;;15.57;;
19521;SDS011;9905;52.126;5.596;2024-03-23T02:46:30;22.25;;;16.52;;
19521;SDS011;9905;52.126;5.596;2024-03-23T02:48:56;19.13;;;16.58;;
19521;SDS011;9905;52.126;5.596;2024-03-23T02:51:23;23.60;;;15.80;;
19521;SDS011;9905;52.126;5.596;2024-03-23T02:53:49;26.88;;;16.90;;
19521;SDS011;9905;52.126;5.596;2024-03-23T02:56:16;19.27;;;16.85;;
19521;SDS011;9905;52.126;5.596;2024-03-23T02:58:44;23.45;;;16.63;;
19521;SDS011;9905;52.126;5.596;2024-03-23T03:01:09;24.27;;;16.70;;
19521;SDS011;9905;52.126;5.596;2024-03-23T03:03:36;20.60;;;17.23;;
19521;SDS011;9905;52.126;5.596;2024-03-23T03:06:02;25.65;;;17.25;;
19521;SDS011;9905;52.126;5.596;2024-03-23T03:08:29;25.65;;;16.95;;
19521;SDS011;9905;52.126;5.596;2024-03-23T03:10:55;24.90;;;18.55;;
19521;SDS011;9905;52.126;5.596;2024-03-23T03:13:22;24.35;;;17.65;;
19521;SDS011;9905;52.126;5.596;2024-03-23T03:15:49;22.30;;;18.83;;
19521;SDS011;9905;52.126;5.596;2024-03-23T03:18:16;21.58;;;16.75;;
19521;SDS011;9905;52.126;5.596;2024-03-23T03:20:42;19.35;;;17.35;;
19521;SDS011;9905;52.126;5.596;2024-03-23T03:23:09;21.58;;;17.67;;
19521;SDS011;9905;52.126;5.596;2024-03-23T03:25:34;23.23;;;16.77;;
19521;SDS011;9905;52.126;5.596;2024-03-23T03:28:01;26.13;;;17.20;;
19521;SDS011;9905;52.126;5.596;2024-03-23T03:30:28;20.48;;;16.98;;
19521;SDS011;9905;52.126;5.596;2024-03-23T03:32:56;24.88;;;19.00;;
19521;SDS011;9905;52.126;5.596;2024-03-23T03:35:21;19.77;;;17.13;;
19521;SDS011;9905;52.126;5.596;2024-03-23T03:37:48;19.33;;;17.27;;
19521;SDS011;9905;52.126;5.596;2024-03-23T03:40:14;21.05;;;16.50;;
19521;SDS011;9905;52.126;5.596;2024-03-23T03:42:41;24.60;;;16.25;;
19521;SDS011;9905;52.126;5.596;2024-03-23T03:45:07;22.55;;;16.80;;
19521;SDS011;9905;52.126;5.596;2024-03-23T03:47:34;18.98;;;16.33;;
19521;SDS011;9905;52.126;5.596;2024-03-23T03:50:02;18.73;;;16.65;;
19521;SDS011;9905;52.126;5.596;2024-03-23T03:52:29;25.17;;;16.92;;
19521;SDS011;9905;52.126;5.596;2024-03-23T03:54:58;26.42;;;16.75;;
19521;SDS011;9905;52.126;5.596;2024-03-23T03:57:28;20.25;;;18.42;;
19521;SDS011;9905;52.126;5.596;2024-03-23T03:59:54;19.67;;;16.98;;
19521;SDS011;9905;52.126;5.596;2024-03-23T04:02:21;20.40;;;16.25;;
19521;SDS011;9905;52.126;5.596;2024-03-23T04:04:46;19.15;;;16.15;;
19521;SDS011;9905;52.126;5.596;2024-03-23T04:07:14;20.50;;;17.48;;
19521;SDS011;9905;52.126;5.596;2024-03-23T04:09:40;18.63;;;16.73;;
19521;SDS011;9905;52.126;5.596;2024-03-23T04:12:07;21.45;;;17.02;;
19521;SDS011;9905;52.126;5.596;2024-03-23T04:14:34;17.83;;;16.05;;
19521;SDS011;9905;52.126;5.596;2024-03-23T04:17:00;20.38;;;15.93;;
19521;SDS011;9905;52.126;5.596;2024-03-23T04:19:27;20.83;;;15.70;;
19521;SDS011;9905;52.126;5.596;2024-03-23T04:21:54;18.17;;;16.38;;
19521;SDS011;9905;52.126;5.596;2024-03-23T04:24:21;17.20;;;15.68;;
19521;SDS011;9905;52.126;5.596;2024-03-23T04:26:49;18.63;;;15.55;;
19521;SDS011;9905;52.126;5.596;2024-03-23T04:29:14;18.52;;;16.73;;
19521;SDS011;9905;52.126;5.596;2024-03-23T04:31:41;16.60;;;14.98;;
19521;SDS011;9905;52.126;5.596;2024-03-23T04:34:07;17.02;;;15.30;;
19521;SDS011;9905;52.126;5.596;2024-03-23T04:36:34;17.83;;;15.98;;
19521;SDS011;9905;52.126;5.596;2024-03-23T04:39:00;19.67;;;16.30;;
19521;SDS011;9905;52.126;5.596;2024-03-23T04:41:28;21.35;;;16.83;;
19521;SDS011;9905;52.126;5.596;2024-03-23T04:43:55;17.75;;;15.95;;
19521;SDS011;9905;52.126;5.596;2024-03-23T04:46:21;22.27;;;15.88;;
19521;SDS011;9905;52.126;5.596;2024-03-23T04:48:48;18.45;;;15.75;;
19521;SDS011;9905;52.126;5.596;2024-03-23T04:51:20;17.40;;;15.50;;
19521;SDS011;9905;52.126;5.596;2024-03-23T04:53:47;16.45;;;14.85;;
19521;SDS011;9905;52.126;5.596;2024-03-23T04:56:14;16.77;;;15.15;;
19521;SDS011;9905;52.126;5.596;2024-03-23T04:58:43;18.90;;;16.10;;
19521;SDS011;9905;52.126;5.596;2024-03-23T05:01:09;17.55;;;14.00;;
19521;SDS011;9905;52.126;5.596;2024-03-23T05:03:36;17.42;;;15.43;;
19521;SDS011;9905;52.126;5.596;2024-03-23T05:06:02;17.05;;;15.32;;
19521;SDS011;9905;52.126;5.596;2024-03-23T05:08:30;23.85;;;14.88;;
19521;SDS011;9905;52.126;5.596;2024-03-23T05:10:56;18.23;;;14.82;;
19521;SDS011;9905;52.126;5.596;2024-03-23T05:13:22;18.25;;;15.77;;
19521;SDS011;9905;52.126;5.596;2024-03-23T05:15:52;20.08;;;13.98;;
19521;SDS011;9905;52.126;5.596;2024-03-23T05:18:19;14.93;;;13.73;;
19521;SDS011;9905;52.126;5.596;2024-03-23T05:20:44;17.77;;;13.02;;
19521;SDS011;9905;52.126;5.596;2024-03-23T05:23:11;12.93;;;11.93;;
19521;SDS011;9905;52.126;5.596;2024-03-23T05:25:37;13.05;;;11.88;;
19521;SDS011;9905;52.126;5.596;2024-03-23T05:28:04;15.27;;;12.43;;
19521;SDS011;9905;52.126;5.596;2024-03-23T05:30:30;19.33;;;12.93;;
19521;SDS011;9905;52.126;5.596;2024-03-23T05:32:58;12.18;;;11.15;;
19521;SDS011;9905;52.126;5.596;2024-03-23T05:35:24;13.23;;;12.00;;
19521;SDS011;9905;52.126;5.596;2024-03-23T05:37:51;12.10;;;11.13;;
19521;SDS011;9905;52.126;5.596;2024-03-23T05:40:17;13.23;;;12.13;;
19521;SDS011;9905;52.126;5.596;2024-03-23T05:42:43;12.73;;;11.93;;
19521;SDS011;9905;52.126;5.596;2024-03-23T05:45:09;12.57;;;11.52;;
19521;SDS011;9905;52.126;5.596;2024-03-23T05:47:36;13.43;;;12.10;;
19521;SDS011;9905;52.126;5.596;2024-03-23T05:50:03;12.63;;;11.50;;
19521;SDS011;9905;52.126;5.596;2024-03-23T05:52:31;12.43;;;11.23;;
19521;SDS011;9905;52.126;5.596;2024-03-23T05:54:57;13.68;;;12.32;;
19521;SDS011;9905;52.126;5.596;2024-03-23T05:57:24;12.27;;;11.23;;
19521;SDS011;9905;52.126;5.596;2024-03-23T05:59:50;12.60;;;11.70;;
19521;SDS011;9905;52.126;5.596;2024-03-23T06:02:17;12.90;;;11.48;;
19521;SDS011;9905;52.126;5.596;2024-03-23T06:04:45;13.45;;;12.18;;
19521;SDS011;9905;52.126;5.596;2024-03-23T06:07:13;14.68;;;11.45;;
19521;SDS011;9905;52.126;5.596;2024-03-23T06:09:39;13.32;;;11.57;;
19521;SDS011;9905;52.126;5.596;2024-03-23T06:12:06;12.25;;;10.95;;
19521;SDS011;9905;52.126;5.596;2024-03-23T06:14:32;12.75;;;11.77;;
19521;SDS011;9905;52.126;5.596;2024-03-23T06:17:00;16.10;;;11.80;;
19521;SDS011;9905;52.126;5.596;2024-03-23T06:19:26;12.77;;;11.68;;
19521;SDS011;9905;52.126;5.596;2024-03-23T06:21:54;12.15;;;11.25;;
19521;SDS011;9905;52.126;5.596;2024-03-23T06:24:21;12.20;;;11.05;;
19521;SDS011;9905;52.126;5.596;2024-03-23T06:26:49;11.38;;;10.18;;
19521;SDS011;9905;52.126;5.596;2024-03-23T06:29:15;12.98;;;10.38;;
19521;SDS011;9905;52.126;5.596;2024-03-23T06:31:42;12.88;;;10.13;;
19521;SDS011;9905;52.126;5.596;2024-03-23T06:34:07;11.38;;;10.27;;
19521;SDS011;9905;52.126;5.596;2024-03-23T06:36:34;9.95;;;9.05;;
19521;SDS011;9905;52.126;5.596;2024-03-23T06:39:01;14.98;;;10.27;;
19521;SDS011;9905;52.126;5.596;2024-03-23T06:41:29;9.65;;;8.60;;
19521;SDS011;9905;52.126;5.596;2024-03-23T06:43:55;10.15;;;9.07;;
19521;SDS011;9905;52.126;5.596;2024-03-23T06:46:22;9.75;;;8.88;;
19521;SDS011;9905;52.126;5.596;2024-03-23T06:48:48;9.95;;;9.05;;
19521;SDS011;9905;52.126;5.596;2024-03-23T06:51:15;10.60;;;9.60;;
19521;SDS011;9905;52.126;5.596;2024-03-23T06:53:40;10.25;;;9.55;;
19521;SDS011;9905;52.126;5.596;2024-03-23T06:56:07;13.95;;;9.90;;
19521;SDS011;9905;52.126;5.596;2024-03-23T06:58:34;12.18;;;9.63;;
19521;SDS011;9905;52.126;5.596;2024-03-23T07:01:01;9.75;;;9.00;;
19521;SDS011;9905;52.126;5.596;2024-03-23T07:03:27;10.85;;;9.45;;
19521;SDS011;9905;52.126;5.596;2024-03-23T07:05:57;9.07;;;8.30;;
19521;SDS011;9905;52.126;5.596;2024-03-23T07:08:23;9.63;;;9.00;;
19521;SDS011;9905;52.126;5.596;2024-03-23T07:10:49;13.32;;;9.00;;
19521;SDS011;9905;52.126;5.596;2024-03-23T07:13:15;10.50;;;9.82;;
19521;SDS011;9905;52.126;5.596;2024-03-23T07:15:44;10.63;;;9.55;;
19521;SDS011;9905;52.126;5.596;2024-03-23T07:18:16;10.15;;;9.40;;
19521;SDS011;9905;52.126;5.596;2024-03-23T07:20:51;9.93;;;9.05;;
19521;SDS011;9905;52.126;5.596;2024-03-23T07:23:17;9.98;;;9.15;;
19521;SDS011;9905;52.126;5.596;2024-03-23T07:25:44;10.65;;;9.55;;
19521;SDS011;9905;52.126;5.596;2024-03-23T07:28:10;9.80;;;8.90;;
19521;SDS011;9905;52.126;5.596;2024-03-23T07:30:36;10.13;;;8.73;;
19521;SDS011;9905;52.126;5.596;2024-03-23T07:33:04;16.67;;;8.75;;
19521;SDS011;9905;52.126;5.596;2024-03-23T07:35:31;9.45;;;8.55;;
19521;SDS011;9905;52.126;5.596;2024-03-23T07:37:57;9.52;;;8.77;;
19521;SDS011;9905;52.126;5.596;2024-03-23T07:40:30;9.88;;;9.02;;
19521;SDS011;9905;52.126;5.596;2024-03-23T07:42:57;10.75;;;9.77;;
19521;SDS011;9905;52.126;5.596;2024-03-23T07:45:22;12.57;;;8.68;;
19521;SDS011;9905;52.126;5.596;2024-03-23T07:47:49;12.10;;;9.13;;
19521;SDS011;9905;52.126;5.596;2024-03-23T07:50:16;12.20;;;9.13;;
19521;SDS011;9905;52.126;5.596;2024-03-23T07:52:43;9.52;;;8.50;;
19521;SDS011;9905;52.126;5.596;2024-03-23T07:55:09;10.93;;;7.80;;
19521;SDS011;9905;52.126;5.596;2024-03-23T07:57:35;12.18;;;8.90;;
19521;SDS011;9905;52.126;5.596;2024-03-23T08:00:01;8.35;;;7.30;;
19521;SDS011;9905;52.126;5.596;2024-03-23T08:02:28;8.02;;;7.38;;
19521;SDS011;9905;52.126;5.596;2024-03-23T08:04:54;12.32;;;7.63;;
19521;SDS011;9905;52.126;5.596;2024-03-23T08:07:22;7.90;;;7.15;;
19521;SDS011;9905;52.126;5.596;2024-03-23T08:09:48;10.90;;;8.52;;
19521;SDS011;9905;52.126;5.596;2024-03-23T08:12:15;16.15;;;6.72;;
19521;SDS011;9905;52.126;5.596;2024-03-23T08:14:40;12.32;;;5.85;;
19521;SDS011;9905;52.126;5.596;2024-03-23T08:17:07;8.93;;;6.85;;
19521;SDS011;9905;52.126;5.596;2024-03-23T08:19:33;7.43;;;6.60;;
19521;SDS011;9905;52.126;5.596;2024-03-23T08:22:00;8.30;;;6.68;;
19521;SDS011;9905;52.126;5.596;2024-03-23T08:24:28;7.57;;;5.45;;
19521;SDS011;9905;52.126;5.596;2024-03-23T08:26:55;6.10;;;5.53;;
19521;SDS011;9905;52.126;5.596;2024-03-23T08:29:21;10.07;;;6.00;;
19521;SDS011;9905;52.126;5.596;2024-03-23T08:31:48;8.93;;;5.95;;
19521;SDS011;9905;52.126;5.596;2024-03-23T08:34:13;6.28;;;5.53;;
19521;SDS011;9905;52.126;5.596;2024-03-23T08:36:43;5.82;;;5.30;;
19521;SDS011;9905;52.126;5.596;2024-03-23T08:39:09;6.85;;;4.70;;
19521;SDS011;9905;52.126;5.596;2024-03-23T08:41:37;8.00;;;4.72;;
19521;SDS011;9905;52.126;5.596;2024-03-23T08:44:03;4.88;;;4.38;;
19521;SDS011;9905;52.126;5.596;2024-03-23T08:46:30;5.57;;;4.97;;
19521;SDS011;9905;52.126;5.596;2024-03-23T08:48:55;5.13;;;4.40;;
19521;SDS011;9905;52.126;5.596;2024-03-23T08:51:22;5.80;;;4.70;;
19521;SDS011;9905;52.126;5.596;2024-03-23T08:53:48;5.75;;;3.88;;
19521;SDS011;9905;52.126;5.596;2024-03-23T08:56:14;7.35;;;4.07;;
19521;SDS011;9905;52.126;5.596;2024-03-23T08:58:42;5.32;;;4.93;;
19521;SDS011;9905;52.126;5.596;2024-03-23T09:01:09;5.57;;;4.28;;
19521;SDS011;9905;52.126;5.596;2024-03-23T09:03:36;6.20;;;3.80;;
19521;SDS011;9905;52.126;5.596;2024-03-23T09:06:06;9.02;;;4.18;;
19521;SDS011;9905;52.126;5.596;2024-03-23T09:08:32;5.53;;;4.22;;
19521;SDS011;9905;52.126;5.596;2024-03-23T09:11:03;4.70;;;4.38;;
19521;SDS011;9905;52.126;5.596;2024-03-23T09:13:30;4.63;;;3.50;;
19521;SDS011;9905;52.126;5.596;2024-03-23T09:15:59;6.22;;;4.00;;
19521;SDS011;9905;52.126;5.596;2024-03-23T09:18:25;7.47;;;4.32;;
19521;SDS011;9905;52.126;5.596;2024-03-23T09:20:52;5.60;;;3.72;;
19521;SDS011;9905;52.126;5.596;2024-03-23T09:23:18;5.75;;;3.83;;
19521;SDS011;9905;52.126;5.596;2024-03-23T09:25:45;6.82;;;3.90;;
19521;SDS011;9905;52.126;5.596;2024-03-23T09:28:10;3.95;;;3.30;;
19521;SDS011;9905;52.126;5.596;2024-03-23T09:30:37;4.57;;;3.63;;
19521;SDS011;9905;52.126;5.596;2024-03-23T09:33:08;8.50;;;3.58;;
19521;SDS011;9905;52.126;5.596;2024-03-23T09:35:36;5.00;;;3.58;;
19521;SDS011;9905;52.126;5.596;2024-03-23T09:38:02;5.13;;;4.00;;
19521;SDS011;9905;52.126;5.596;2024-03-23T09:40:29;4.53;;;4.20;;
19521;SDS011;9905;52.126;5.596;2024-03-23T09:42:55;4.65;;;4.25;;
19521;SDS011;9905;52.126;5.596;2024-03-23T09:45:23;7.57;;;4.43;;
19521;SDS011;9905;52.126;5.596;2024-03-23T09:47:52;7.65;;;4.97;;
19521;SDS011;9905;52.126;5.596;2024-03-23T09:50:21;5.90;;;5.20;;
19521;SDS011;9905;52.126;5.596;2024-03-23T09:52:47;5.95;;;4.57;;
19521;SDS011;9905;52.126;5.596;2024-03-23T09:55:14;5.25;;;4.80;;
19521;SDS011;9905;52.126;5.596;2024-03-23T09:57:40;6.43;;;4.60;;
19521;SDS011;9905;52.126;5.596;2024-03-23T10:00:07;4.82;;;4.43;;
19521;SDS011;9905;52.126;5.596;2024-03-23T10:02:34;6.78;;;5.53;;
19521;SDS011;9905;52.126;5.596;2024-03-23T10:05:01;4.47;;;4.10;;
19521;SDS011;9905;52.126;5.596;2024-03-23T10:07:29;4.43;;;3.85;;
19521;SDS011;9905;52.126;5.596;2024-03-23T10:09:56;4.25;;;4.05;;
19521;SDS011;9905;52.126;5.596;2024-03-23T10:12:22;4.78;;;4.47;;
19521;SDS011;9905;52.126;5.596;2024-03-23T10:14:50;6.35;;;5.05;;
19521;SDS011;9905;52.126;5.596;2024-03-23T10:17:19;6.93;;;6.43;;
19521;SDS011;9905;52.126;5.596;2024-03-23T10:19:49;6.40;;;5.90;;
19521;SDS011;9905;52.126;5.596;2024-03-23T10:22:17;6.10;;;5.28;;
19521;SDS011;9905;52.126;5.596;2024-03-23T10:24:46;9.77;;;5.70;;
19521;SDS011;9905;52.126;5.596;2024-03-23T10:27:14;5.97;;;5.32;;
19521;SDS011;9905;52.126;5.596;2024-03-23T10:29:42;7.55;;;4.50;;
19521;SDS011;9905;52.126;5.596;2024-03-23T10:32:09;8.05;;;4.90;;
19521;SDS011;9905;52.126;5.596;2024-03-23T10:34:36;7.97;;;4.72;;
19521;SDS011;9905;52.126;5.596;2024-03-23T10:37:03;6.97;;;3.72;;
19521;SDS011;9905;52.126;5.596;2024-03-23T10:39:31;7.88;;;3.75;;
19521;SDS011;9905;52.126;5.596;2024-03-23T10:42:01;4.70;;;4.32;;
19521;SDS011;9905;52.126;5.596;2024-03-23T10:44:29;6.13;;;4.38;;
19521;SDS011;9905;52.126;5.596;2024-03-23T10:46:56;5.18;;;4.38;;
19521;SDS011;9905;52.126;5.596;2024-03-23T10:49:26;5.20;;;4.80;;
19521;SDS011;9905;52.126;5.596;2024-03-23T10:51:54;6.25;;;4.30;;
19521;SDS011;9905;52.126;5.596;2024-03-23T10:54:22;4.88;;;4.40;;
19521;SDS011;9905;52.126;5.596;2024-03-23T10:56:50;4.43;;;4.13;;
19521;SDS011;9905;52.126;5.596;2024-03-23T10:59:20;9.55;;;3.85;;
19521;SDS011;9905;52.126;5.596;2024-03-23T11:01:53;6.75;;;4.20;;
19521;SDS011;9905;52.126;5.596;2024-03-23T11:04:30;7.47;;;3.72;;
19521;SDS011;9905;52.126;5.596;2024-03-23T11:07:00;6.43;;;3.58;;
19521;SDS011;9905;52.126;5.596;2024-03-23T11:09:39;5.75;;;4.05;;
19521;SDS011;9905;52.126;5.596;2024-03-23T11:15:02;4.25;;;3.70;;
19521;SDS011;9905;52.126;5.596;2024-03-23T11:17:30;5.07;;;3.70;;
19521;SDS011;9905;52.126;5.596;2024-03-23T11:19:58;5.22;;;3.92;;
19521;SDS011;9905;52.126;5.596;2024-03-23T11:22:40;5.25;;;4.45;;
19521;SDS011;9905;52.126;5.596;2024-03-23T11:25:17;4.28;;;4.03;;
19521;SDS011;9905;52.126;5.596;2024-03-23T11:27:45;4.68;;;4.20;;
19521;SDS011;9905;52.126;5.596;2024-03-23T11:30:14;4.85;;;4.40;;
19521;SDS011;9905;52.126;5.596;2024-03-23T11:32:42;4.18;;;3.88;;
19521;SDS011;9905;52.126;5.596;2024-03-23T11:35:09;6.15;;;4.60;;
19521;SDS011;9905;52.126;5.596;2024-03-23T11:37:36;4.95;;;3.28;;
19521;SDS011;9905;52.126;5.596;2024-03-23T11:40:19;4.85;;;4.43;;
19521;SDS011;9905;52.126;5.596;2024-03-23T11:42:45;5.38;;;5.18;;
19521;SDS011;9905;52.126;5.596;2024-03-23T11:45:12;6.82;;;5.13;;
19521;SDS011;9905;52.126;5.596;2024-03-23T11:47:41;5.43;;;4.93;;
19521;SDS011;9905;52.126;5.596;2024-03-23T11:50:08;8.18;;;4.53;;
19521;SDS011;9905;52.126;5.596;2024-03-23T11:52:34;5.28;;;4.20;;
19521;SDS011;9905;52.126;5.596;2024-03-23T11:55:04;7.05;;;4.03;;
19521;SDS011;9905;52.126;5.596;2024-03-23T11:57:32;4.65;;;4.25;;
19521;SDS011;9905;52.126;5.596;2024-03-23T11:59:59;4.75;;;3.85;;
19521;SDS011;9905;52.126;5.596;2024-03-23T12:02:26;4.90;;;3.83;;
19521;SDS011;9905;52.126;5.596;2024-03-23T12:04:53;5.93;;;4.20;;
19521;SDS011;9905;52.126;5.596;2024-03-23T12:07:20;7.35;;;3.97;;
19521;SDS011;9905;52.126;5.596;2024-03-23T12:09:47;4.05;;;3.67;;
19521;SDS011;9905;52.126;5.596;2024-03-23T12:12:28;8.05;;;3.75;;
19521;SDS011;9905;52.126;5.596;2024-03-23T12:15:02;3.78;;;3.33;;
19521;SDS011;9905;52.126;5.596;2024-03-23T12:17:30;6.97;;;3.67;;
19521;SDS011;9905;52.126;5.596;2024-03-23T12:19:57;4.05;;;3.55;;
19521;SDS011;9905;52.126;5.596;2024-03-23T12:22:23;4.63;;;3.72;;
19521;SDS011;9905;52.126;5.596;2024-03-23T12:24:50;4.72;;;3.50;;
19521;SDS011;9905;52.126;5.596;2024-03-23T12:27:16;3.67;;;3.20;;
19521;SDS011;9905;52.126;5.596;2024-03-23T12:29:43;7.03;;;3.10;;
19521;SDS011;9905;52.126;5.596;2024-03-23T12:32:11;6.82;;;3.28;;
19521;SDS011;9905;52.126;5.596;2024-03-23T12:34:40;5.45;;;3.50;;
19521;SDS011;9905;52.126;5.596;2024-03-23T12:37:06;5.18;;;3.88;;
19521;SDS011;9905;52.126;5.596;2024-03-23T12:39:33;4.82;;;3.53;;
19521;SDS011;9905;52.126;5.596;2024-03-23T12:42:00;9.45;;;4.05;;
19521;SDS011;9905;52.126;5.596;2024-03-23T12:44:27;5.85;;;4.10;;
19521;SDS011;9905;52.126;5.596;2024-03-23T12:46:53;4.53;;;3.60;;
19521;SDS011;9905;52.126;5.596;2024-03-23T12:49:20;5.00;;;3.92;;
19521;SDS011;9905;52.126;5.596;2024-03-23T12:51:48;6.70;;;3.38;;
19521;SDS011;9905;52.126;5.596;2024-03-23T12:54:22;4.53;;;3.05;;
19521;SDS011;9905;52.126;5.596;2024-03-23T12:56:48;6.55;;;3.55;;
19521;SDS011;9905;52.126;5.596;2024-03-23T12:59:15;3.58;;;2.90;;
19521;SDS011;9905;52.126;5.596;2024-03-23T13:01:41;3.42;;;3.13;;
19521;SDS011;9905;52.126;5.596;2024-03-23T13:04:08;3.63;;;3.33;;
19521;SDS011;9905;52.126;5.596;2024-03-23T13:06:34;3.88;;;3.10;;
19521;SDS011;9905;52.126;5.596;2024-03-23T13:09:02;4.80;;;2.90;;
19521;SDS011;9905;52.126;5.596;2024-03-23T13:11:29;11.43;;;4.07;;
19521;SDS011;9905;52.126;5.596;2024-03-23T13:13:55;4.07;;;3.50;;
19521;SDS011;9905;52.126;5.596;2024-03-23T13:16:21;5.45;;;3.90;;
19521;SDS011;9905;52.126;5.596;2024-03-23T13:18:48;4.07;;;3.38;;
19521;SDS011;9905;52.126;5.596;2024-03-23T13:21:14;4.28;;;3.42;;
19521;SDS011;9905;52.126;5.596;2024-03-23T13:23:41;5.38;;;3.25;;
19521;SDS011;9905;52.126;5.596;2024-03-23T13:26:12;6.50;;;3.08;;
19521;SDS011;9905;52.126;5.596;2024-03-23T13:28:39;4.53;;;3.00;;
19521;SDS011;9905;52.126;5.596;2024-03-23T13:31:04;3.75;;;3.35;;
19521;SDS011;9905;52.126;5.596;2024-03-23T13:33:31;4.38;;;3.28;;
19521;SDS011;9905;52.126;5.596;2024-03-23T13:35:57;6.40;;;3.15;;
19521;SDS011;9905;52.126;5.596;2024-03-23T13:38:24;4.28;;;3.15;;
19521;SDS011;9905;52.126;5.596;2024-03-23T13:40:51;4.82;;;3.25;;
19521;SDS011;9905;52.126;5.596;2024-03-23T13:43:20;4.07;;;2.85;;
19521;SDS011;9905;52.126;5.596;2024-03-23T13:45:46;3.55;;;3.28;;
19521;SDS011;9905;52.126;5.596;2024-03-23T13:48:14;3.10;;;2.60;;
19521;SDS011;9905;52.126;5.596;2024-03-23T13:50:40;2.67;;;2.58;;
19521;SDS011;9905;52.126;5.596;2024-03-23T13:53:07;3.05;;;2.95;;
19521;SDS011;9905;52.126;5.596;2024-03-23T13:55:33;4.22;;;3.38;;
19521;SDS011;9905;52.126;5.596;2024-03-23T13:58:00;3.30;;;3.10;;
19521;SDS011;9905;52.126;5.596;2024-03-23T14:00:28;4.03;;;3.13;;
19521;SDS011;9905;52.126;5.596;2024-03-23T14:02:54;2.97;;;2.78;;
19521;SDS011;9905;52.126;5.596;2024-03-23T14:05:20;3.40;;;3.20;;
19521;SDS011;9905;52.126;5.596;2024-03-23T14:07:47;3.00;;;2.80;;
19521;SDS011;9905;52.126;5.596;2024-03-23T14:10:14;3.13;;;2.92;;
19521;SDS011;9905;52.126;5.596;2024-03-23T14:12:41;3.55;;;3.08;;
19521;SDS011;9905;52.126;5.596;2024-03-23T14:15:07;3.20;;;3.10;;
19521;SDS011;9905;52.126;5.596;2024-03-23T14:17:35;3.58;;;3.10;;
19521;SDS011;9905;52.126;5.596;2024-03-23T14:20:01;3.58;;;3.00;;
19521;SDS011;9905;52.126;5.596;2024-03-23T14:22:30;5.47;;;3.88;;
19521;SDS011;9905;52.126;5.596;2024-03-23T14:24:56;4.07;;;2.92;;
19521;SDS011;9905;52.126;5.596;2024-03-23T14:27:23;6.78;;;3.20;;
19521;SDS011;9905;52.126;5.596;2024-03-23T14:29:49;6.18;;;3.63;;
19521;SDS011;9905;52.126;5.596;2024-03-23T14:32:16;3.22;;;3.03;;
19521;SDS011;9905;52.126;5.596;2024-03-23T14:34:43;3.85;;;3.08;;
19521;SDS011;9905;52.126;5.596;2024-03-23T14:37:09;7.55;;;3.38;;
19521;SDS011;9905;52.126;5.596;2024-03-23T14:39:35;4.28;;;2.67;;
19521;SDS011;9905;52.126;5.596;2024-03-23T14:42:04;3.50;;;3.30;;
19521;SDS011;9905;52.126;5.596;2024-03-23T14:44:31;3.40;;;3.10;;
19521;SDS011;9905;52.126;5.596;2024-03-23T14:46:58;4.22;;;3.28;;
19521;SDS011;9905;52.126;5.596;2024-03-23T14:49:24;5.20;;;3.28;;
19521;SDS011;9905;52.126;5.596;2024-03-23T14:51:52;3.78;;;3.05;;
19521;SDS011;9905;52.126;5.596;2024-03-23T14:54:18;4.10;;;2.78;;
19521;SDS011;9905;52.126;5.596;2024-03-23T14:56:44;4.95;;;3.10;;
19521;SDS011;9905;52.126;5.596;2024-03-23T14:59:12;4.57;;;3.03;;
19521;SDS011;9905;52.126;5.596;2024-03-23T15:01:39;3.17;;;2.90;;
19521;SDS011;9905;52.126;5.596;2024-03-23T15:04:05;4.00;;;3.47;;
19521;SDS011;9905;52.126;5.596;2024-03-23T15:06:31;3.60;;;2.97;;
19521;SDS011;9905;52.126;5.596;2024-03-23T15:08:59;3.47;;;3.22;;
19521;SDS011;9905;52.126;5.596;2024-03-23T15:11:26;5.05;;;3.05;;
19521;SDS011;9905;52.126;5.596;2024-03-23T15:13:52;6.35;;;3.60;;
19521;SDS011;9905;52.126;5.596;2024-03-23T15:16:20;4.47;;;3.60;;
19521;SDS011;9905;52.126;5.596;2024-03-23T15:18:46;6.75;;;3.13;;
19521;SDS011;9905;52.126;5.596;2024-03-23T15:21:13;3.63;;;2.97;;
19521;SDS011;9905;52.126;5.596;2024-03-23T15:23:45;3.35;;;3.08;;
19521;SDS011;9905;52.126;5.596;2024-03-23T15:26:13;3.97;;;3.55;;
19521;SDS011;9905;52.126;5.596;2024-03-23T15:28:39;4.95;;;3.40;;
19521;SDS011;9905;52.126;5.596;2024-03-23T15:31:08;3.45;;;3.15;;
19521;SDS011;9905;52.126;5.596;2024-03-23T15:33:34;3.00;;;2.78;;
19521;SDS011;9905;52.126;5.596;2024-03-23T15:36:01;3.85;;;3.50;;
19521;SDS011;9905;52.126;5.596;2024-03-23T15:38:28;3.03;;;2.83;;
19521;SDS011;9905;52.126;5.596;2024-03-23T15:40:55;4.00;;;2.97;;
19521;SDS011;9905;52.126;5.596;2024-03-23T15:43:22;3.40;;;2.85;;
19521;SDS011;9905;52.126;5.596;2024-03-23T15:45:59;3.00;;;2.75;;
19521;SDS011;9905;52.126;5.596;2024-03-23T15:48:25;3.20;;;2.58;;